Time;durP1;ratioP1;P1;durP2;ratioP2;P2;SDS_P1;SDS_P2;PMS_P1;PMS_P2;Temp;Humidity;BMP_temperature;BMP_pressure;BME280_temperature;BME280_humidity;BME280_pressure;Samples;Min_cycle;Max_cycle;Signal;HPM_P1;HPM_P2
2023/05/14 00:00:26;;;;;;;;;;;;;;;18.54;34.55;101041.56;4972710;27;98068;-71
2023/05/14 00:02:54;;;;;;;;;;;;;;;18.53;34.57;101039.97;4953848;27;98109;-70
2023/05/14 00:05:20;;;;;;;;;;;;;;;18.53;34.69;101039.16;4952602;27;98431;-70
2023/05/14 00:07:47;;;;;;;;;;;;;;;18.50;34.60;101035.13;4954547;27;98133;-71
2023/05/14 00:10:16;;;;;;;;;;;;;;;18.48;34.74;101040.09;4945244;27;98323;-71
2023/05/14 00:12:45;;;;;;;;;;;;;;;18.48;34.71;101031.09;4950283;28;97909;-71
2023/05/14 00:15:11;;;;;;;;;;;;;;;18.46;34.61;101030.59;4963440;27;98370;-70
2023/05/14 00:17:38;;;;;;;;;;;;;;;18.43;34.64;101034.75;4949077;27;98129;-70
2023/05/14 00:20:10;;;;;;;;;;;;;;;18.42;34.71;101030.38;4968491;27;98053;-70
2023/05/14 00:22:38;;;;;;;;;;;;;;;18.42;34.76;101029.59;4952727;27;98093;-71
2023/05/14 00:25:05;;;;;;;;;;;;;;;18.39;34.97;101018.19;4968328;27;97979;-71
2023/05/14 00:27:32;;;;;;;;;;;;;;;18.38;34.63;101013.81;4952482;27;98205;-70
2023/05/14 00:30:01;;;;;;;;;;;;;;;18.37;34.78;101023.13;4985596;27;98447;-70
2023/05/14 00:32:28;;;;;;;;;;;;;;;18.35;34.85;101014.44;4951609;27;97961;-70
2023/05/14 00:34:57;;;;;;;;;;;;;;;18.34;34.81;101012.81;4968490;27;98064;-70
2023/05/14 00:37:24;;;;;;;;;;;;;;;18.32;34.86;101017.78;4964005;27;98071;-73
2023/05/14 00:39:51;;;;;;;;;;;;;;;18.31;34.76;101005.25;4951774;27;98359;-70
2023/05/14 00:42:18;;;;;;;;;;;;;;;18.31;34.81;101015.34;4967937;27;98181;-70
2023/05/14 00:44:45;;;;;;;;;;;;;;;18.29;34.76;101020.31;4970003;27;100036;-71
2023/05/14 00:47:14;;;;;;;;;;;;;;;18.27;34.85;101017.06;4967251;27;98171;-71
2023/05/14 00:49:41;;;;;;;;;;;;;;;18.27;34.96;101015.16;4953001;27;97942;-70
2023/05/14 00:52:09;;;;;;;;;;;;;;;18.25;34.80;101016.59;4970739;27;98339;-70
2023/05/14 00:54:37;;;;;;;;;;;;;;;18.24;34.83;101017.69;4967511;27;98228;-71
2023/05/14 00:57:03;;;;;;;;;;;;;;;18.22;34.90;101012.53;4950275;27;98214;-71
2023/05/14 00:59:30;;;;;;;;;;;;;;;18.19;34.85;101013.13;4965157;27;99826;-71
2023/05/14 01:01:57;;;;;;;;;;;;;;;18.19;34.68;101009.59;4966576;27;98456;-71
2023/05/14 01:04:25;;;;;;;;;;;;;;;18.18;34.87;101011.53;4967827;27;99558;-70
2023/05/14 01:07:16;;;;;;;;;;;;;;;18.16;34.97;101005.59;4967258;27;98194;-71
2023/05/14 01:10:41;;;;;;;;;;;;;;;18.14;34.97;101002.34;4970398;27;98099;-70
2023/05/14 01:13:35;;;;;;;;;;;;;;;18.13;34.96;100998.00;4904028;28;98670;-72
2023/05/14 01:16:03;;;;;;;;;;;;;;;18.11;34.88;100998.28;4872758;28;98167;-70
2023/05/14 01:18:32;;;;;;;;;;;;;;;18.09;35.10;100989.63;4966821;27;99698;-70
2023/05/14 01:20:59;;;;;;;;;;;;;;;18.09;35.01;101000.53;4967515;27;98455;-70
2023/05/14 01:23:25;;;;;;;;;;;;;;;18.08;35.10;100996.19;4967086;27;98192;-70
2023/05/14 01:25:52;;;;;;;;;;;;;;;18.06;34.84;100995.69;4952379;27;98311;-71
2023/05/14 01:28:21;;;;;;;;;;;;;;;18.05;35.00;100996.81;4966747;27;98001;-71
2023/05/14 01:30:53;;;;;;;;;;;;;;;18.03;35.01;100992.75;4951570;27;97954;-71
2023/05/14 01:33:23;;;;;;;;;;;;;;;18.01;35.08;100992.25;4961447;27;100963;-71
2023/05/14 01:35:52;;;;;;;;;;;;;;;18.00;34.82;100996.91;4971654;27;98167;-70
2023/05/14 01:38:20;;;;;;;;;;;;;;;17.99;34.92;101002.66;4952979;27;97823;-70
2023/05/14 01:40:47;;;;;;;;;;;;;;;17.96;34.90;100995.91;4948345;27;97996;-70
2023/05/14 01:43:14;;;;;;;;;;;;;;;17.95;34.99;100990.75;4950309;27;99469;-72
2023/05/14 01:45:44;;;;;;;;;;;;;;;17.93;34.97;100990.25;4957808;27;97854;-71
2023/05/14 01:48:10;;;;;;;;;;;;;;;17.90;35.07;100992.47;4964698;27;98401;-72
2023/05/14 01:50:37;;;;;;;;;;;;;;;17.88;34.96;100986.50;4968679;27;98036;-70
2023/05/14 01:53:05;;;;;;;;;;;;;;;17.85;35.17;100989.84;4951551;27;98043;-71
2023/05/14 01:55:32;;;;;;;;;;;;;;;17.84;34.97;100990.13;4951080;27;98827;-72
2023/05/14 01:57:58;;;;;;;;;;;;;;;17.81;35.07;100986.09;4967085;27;99894;-71
2023/05/14 02:00:25;;;;;;;;;;;;;;;17.79;35.20;100982.06;4951909;27;98204;-71
2023/05/14 02:02:52;;;;;;;;;;;;;;;17.78;34.99;100988.63;4951434;27;98092;-72
2023/05/14 02:05:19;;;;;;;;;;;;;;;17.75;35.15;100981.84;4964326;27;100022;-70
2023/05/14 02:07:46;;;;;;;;;;;;;;;17.73;35.23;100980.53;4967882;27;98202;-71
2023/05/14 02:10:15;;;;;;;;;;;;;;;17.70;35.08;100984.66;4952252;27;98746;-71
2023/05/14 02:12:41;;;;;;;;;;;;;;;17.66;35.14;100978.19;4951755;27;99993;-72
2023/05/14 02:15:09;;;;;;;;;;;;;;;17.65;35.08;100979.31;4940275;27;98644;-70
2023/05/14 02:17:37;;;;;;;;;;;;;;;17.62;35.40;100972.53;4948304;28;98158;-71
2023/05/14 02:20:05;;;;;;;;;;;;;;;17.61;35.12;100967.41;4963104;27;98008;-71
2023/05/14 02:22:32;;;;;;;;;;;;;;;17.60;35.33;100971.22;4947982;27;98416;-71
2023/05/14 02:24:58;;;;;;;;;;;;;;;17.57;35.20;100969.13;4959951;27;98333;-70
2023/05/14 02:27:25;;;;;;;;;;;;;;;17.54;35.15;100969.72;4933515;27;98122;-71
2023/05/14 02:29:52;;;;;;;;;;;;;;;17.53;35.24;100979.00;4947263;27;98080;-70
2023/05/14 02:32:18;;;;;;;;;;;;;;;17.51;35.35;100973.03;4946948;27;98135;-72
2023/05/14 02:34:45;;;;;;;;;;;;;;;17.50;35.33;100974.16;4947503;28;98227;-71
2023/05/14 02:37:11;;;;;;;;;;;;;;;17.46;35.20;100967.69;4964488;27;98219;-70
2023/05/14 02:39:37;;;;;;;;;;;;;;;17.46;35.26;100970.41;4946041;27;99361;-71
2023/05/14 02:42:05;;;;;;;;;;;;;;;17.42;35.29;100971.00;4949178;27;98203;-70
2023/05/14 02:44:32;;;;;;;;;;;;;;;17.41;35.32;100963.16;4945705;27;98251;-71
2023/05/14 02:46:59;;;;;;;;;;;;;;;17.39;35.29;100968.88;4965998;27;98108;-71
2023/05/14 02:49:26;;;;;;;;;;;;;;;17.38;35.40;100963.75;4960827;28;99603;-70
2023/05/14 02:51:53;;;;;;;;;;;;;;;17.37;35.35;100962.09;4950338;27;98236;-70
2023/05/14 02:54:20;;;;;;;;;;;;;;;17.40;35.25;100961.50;4951153;27;97932;-71
2023/05/14 02:56:47;;;;;;;;;;;;;;;17.45;35.42;100960.59;4944827;27;98475;-70
2023/05/14 02:59:14;;;;;;;;;;;;;;;17.50;35.33;100964.06;4950128;28;99457;-71
2023/05/14 03:01:41;;;;;;;;;;;;;;;17.54;35.24;100954.16;4954735;27;98196;-71
2023/05/14 03:04:08;;;;;;;;;;;;;;;17.57;35.37;100958.22;4949473;28;98196;-71
2023/05/14 03:06:35;;;;;;;;;;;;;;;17.60;35.24;100960.31;4963141;27;98174;-72
2023/05/14 03:09:03;;;;;;;;;;;;;;;17.60;35.30;100950.22;4949090;27;97969;-72
2023/05/14 03:11:30;;;;;;;;;;;;;;;17.62;35.46;100958.09;4946602;27;98390;-71
2023/05/14 03:13:59;;;;;;;;;;;;;;;17.62;35.42;100960.84;4945246;27;98363;-71
2023/05/14 03:16:28;;;;;;;;;;;;;;;17.62;35.51;100958.91;4934141;27;97990;-70
2023/05/14 03:18:56;;;;;;;;;;;;;;;17.61;35.55;100957.31;4964252;27;98700;-70
2023/05/14 03:21:26;;;;;;;;;;;;;;;17.61;35.54;100965.47;4951197;28;98062;-70
2023/05/14 03:23:53;;;;;;;;;;;;;;;17.60;35.50;100955.66;4945768;27;98821;-71
2023/05/14 03:26:20;;;;;;;;;;;;;;;17.60;35.47;100961.13;4950576;27;98255;-70
2023/05/14 03:28:49;;;;;;;;;;;;;;;17.60;35.49;100960.31;4951154;27;98134;-71
2023/05/14 03:31:17;;;;;;;;;;;;;;;17.58;35.52;100960.63;4949892;27;98639;-70
2023/05/14 03:33:43;;;;;;;;;;;;;;;17.58;35.51;100960.63;4950183;28;98755;-71
2023/05/14 03:36:11;;;;;;;;;;;;;;;17.55;35.45;100950.31;4964959;27;98115;-70
2023/05/14 03:38:39;;;;;;;;;;;;;;;17.55;35.50;100952.25;4948700;27;97981;-70
2023/05/14 03:41:07;;;;;;;;;;;;;;;17.54;35.58;100946.00;4962609;28;98265;-70
2023/05/14 03:43:34;;;;;;;;;;;;;;;17.54;35.55;100950.63;4938928;28;101304;-70
2023/05/14 03:46:01;;;;;;;;;;;;;;;17.53;35.50;100944.38;4963680;27;98343;-71
2023/05/14 03:48:28;;;;;;;;;;;;;;;17.54;35.60;100948.72;4948751;27;100534;-71
2023/05/14 03:50:55;;;;;;;;;;;;;;;17.53;35.38;100949.03;4947239;28;99413;-70
2023/05/14 03:53:22;;;;;;;;;;;;;;;17.53;35.48;100938.94;4936969;27;98136;-71
2023/05/14 03:55:50;;;;;;;;;;;;;;;17.53;35.55;100938.13;4950031;27;99148;-70
2023/05/14 03:58:18;;;;;;;;;;;;;;;17.52;35.61;100942.75;4954296;27;98076;-72
2023/05/14 04:00:46;;;;;;;;;;;;;;;17.54;35.46;100950.63;4950311;27;98107;-71
2023/05/14 04:03:12;;;;;;;;;;;;;;;17.52;35.54;100941.94;4941924;28;98356;-71
2023/05/14 04:05:40;;;;;;;;;;;;;;;17.53;35.50;100940.84;4950720;27;97827;-71
2023/05/14 04:08:08;;;;;;;;;;;;;;;17.52;35.40;100945.47;4951152;28;98011;-70
2023/05/14 04:10:35;;;;;;;;;;;;;;;17.53;35.36;100943.56;4963731;27;98229;-72
2023/05/14 04:13:04;;;;;;;;;;;;;;;17.55;35.57;100941.34;4965183;27;98155;-72
2023/05/14 04:15:32;;;;;;;;;;;;;;;17.56;35.38;100943.75;4967383;27;98082;-70
2023/05/14 04:17:58;;;;;;;;;;;;;;;17.58;35.65;100949.72;4956836;27;98090;-72
2023/05/14 04:20:27;;;;;;;;;;;;;;;17.59;35.43;100943.16;4970514;27;99040;-71
2023/05/14 04:22:57;;;;;;;;;;;;;;;17.62;35.58;100936.31;4969505;27;98191;-71
2023/05/14 04:25:24;;;;;;;;;;;;;;;17.63;35.49;100929.72;4954147;27;99413;-71
2023/05/14 04:27:50;;;;;;;;;;;;;;;17.66;35.20;100931.84;4969792;27;98242;-72
2023/05/14 04:30:17;;;;;;;;;;;;;;;17.70;35.35;100940.25;4970268;27;98056;-72
2023/05/14 04:32:43;;;;;;;;;;;;;;;17.74;35.41;100936.59;4955617;27;99211;-72
2023/05/14 04:35:11;;;;;;;;;;;;;;;17.77;35.43;100946.13;4967065;27;99314;-71
2023/05/14 04:37:37;;;;;;;;;;;;;;;17.78;35.32;100956.72;4962683;27;98172;-72
2023/05/14 04:40:05;;;;;;;;;;;;;;;17.81;35.31;100952.59;4984039;27;98200;-72
2023/05/14 04:42:33;;;;;;;;;;;;;;;17.84;35.37;100954.69;4958022;27;97962;-72
2023/05/14 04:44:59;;;;;;;;;;;;;;;17.85;35.30;100954.41;4959316;27;98031;-72
2023/05/14 04:47:26;;;;;;;;;;;;;;;17.88;35.28;100950.22;4944862;27;97996;-72
2023/05/14 04:49:53;;;;;;;;;;;;;;;17.91;35.32;100952.34;4951412;27;98079;-71
2023/05/14 04:52:20;;;;;;;;;;;;;;;17.93;35.38;100952.06;4959167;27;98261;-72
2023/05/14 04:54:46;;;;;;;;;;;;;;;17.95;35.25;100941.66;4956005;27;98181;-73
2023/05/14 04:57:13;;;;;;;;;;;;;;;17.98;35.27;100944.56;4954064;27;98320;-71
2023/05/14 04:59:39;;;;;;;;;;;;;;;18.03;35.30;100944.47;4967114;27;98324;-72
2023/05/14 05:02:05;;;;;;;;;;;;;;;18.09;35.08;100947.91;4952193;27;98130;-72
2023/05/14 05:04:32;;;;;;;;;;;;;;;18.17;35.11;100960.00;4967844;27;98145;-72
2023/05/14 05:06:58;;;;;;;;;;;;;;;18.26;35.21;100952.72;4966894;27;98237;-72
2023/05/14 05:09:24;;;;;;;;;;;;;;;18.33;35.12;100944.91;4967671;27;98106;-73
2023/05/14 05:11:51;;;;;;;;;;;;;;;18.43;35.15;100950.16;4981466;27;98093;-72
2023/05/14 05:14:19;;;;;;;;;;;;;;;18.52;35.08;100953.75;4941796;27;98299;-72
2023/05/14 05:16:45;;;;;;;;;;;;;;;18.62;34.89;100945.28;4944918;27;98100;-71
2023/05/14 05:19:13;;;;;;;;;;;;;;;18.75;35.03;100942.88;4969135;27;98233;-73
2023/05/14 05:21:39;;;;;;;;;;;;;;;18.86;34.67;100939.59;4957212;27;98880;-72
2023/05/14 05:24:07;;;;;;;;;;;;;;;19.00;34.74;100936.75;4957334;27;98167;-73
2023/05/14 05:26:35;;;;;;;;;;;;;;;19.15;34.74;100932.84;4963948;27;98226;-72
2023/05/14 05:29:03;;;;;;;;;;;;;;;19.28;34.77;100945.59;4950786;27;98144;-72
2023/05/14 05:31:34;;;;;;;;;;;;;;;19.43;34.62;100935.38;4973405;27;99808;-73
2023/05/14 05:34:01;;;;;;;;;;;;;;;19.57;34.50;100939.63;4961202;27;98412;-73
2023/05/14 05:36:27;;;;;;;;;;;;;;;19.71;34.58;100927.78;4962097;27;98973;-72
2023/05/14 05:38:55;;;;;;;;;;;;;;;19.85;34.62;100940.22;4948318;27;99517;-72
2023/05/14 05:41:27;;;;;;;;;;;;;;;20.02;34.36;100933.16;4949231;27;98196;-72
2023/05/14 05:43:53;;;;;;;;;;;;;;;20.19;34.39;100924.16;4966162;27;98043;-73
2023/05/14 05:46:20;;;;;;;;;;;;;;;20.37;34.25;100922.25;4963754;27;97979;-72
2023/05/14 05:48:47;;;;;;;;;;;;;;;20.55;34.22;100916.47;4950172;27;98173;-73
2023/05/14 05:51:13;;;;;;;;;;;;;;;20.77;34.19;100914.66;4949015;27;98449;-72
2023/05/14 05:53:40;;;;;;;;;;;;;;;20.98;34.16;100914.75;4949512;27;98019;-73
2023/05/14 05:56:06;;;;;;;;;;;;;;;21.21;34.07;100915.34;4951713;27;98972;-72
2023/05/14 05:58:33;;;;;;;;;;;;;;;21.44;34.00;100910.44;4966921;27;98175;-71
2023/05/14 06:01:00;;;;;;;;;;;;;;;21.72;34.02;100919.00;4956178;27;99637;-73
2023/05/14 06:03:27;;;;;;;;;;;;;;;22.02;33.82;100914.31;4948729;27;98178;-71
2023/05/14 06:05:55;;;;;;;;;;;;;;;22.35;33.56;100916.34;4963843;27;98338;-71
2023/05/14 06:08:24;;;;;;;;;;;;;;;22.75;33.68;100917.44;4962617;27;98416;-72
2023/05/14 06:10:50;;;;;;;;;;;;;;;23.17;33.31;100911.81;4961871;27;98248;-72
2023/05/14 06:13:18;;;;;;;;;;;;;;;23.72;33.16;100906.94;4951693;27;98074;-72
2023/05/14 06:15:44;;;;;;;;;;;;;;;24.33;32.77;100912.31;4967041;27;98723;-72
2023/05/14 06:18:11;;;;;;;;;;;;;;;24.75;32.72;100911.91;4964098;27;98092;-72
2023/05/14 06:20:40;;;;;;;;;;;;;;;25.13;32.72;100900.34;4980560;27;98369;-74
2023/05/14 06:23:06;;;;;;;;;;;;;;;25.30;32.60;100912.97;4954709;27;99829;-74
2023/05/14 06:25:33;;;;;;;;;;;;;;;25.44;32.52;100912.53;4893393;27;100812;-72
2023/05/14 06:28:03;;;;;;;;;;;;;;;25.75;32.51;100908.94;4945896;27;98162;-76
2023/05/14 06:30:29;;;;;;;;;;;;;;;26.10;32.39;100914.47;4942548;27;98543;-74
2023/05/14 06:32:57;;;;;;;;;;;;;;;26.37;32.10;100912.66;4927653;27;98055;-74
2023/05/14 06:35:24;;;;;;;;;;;;;;;26.61;31.97;100917.13;4942591;27;98660;-75
2023/05/14 06:37:51;;;;;;;;;;;;;;;26.87;31.97;100912.84;4945266;27;98369;-72
2023/05/14 06:40:19;;;;;;;;;;;;;;;27.05;32.13;100905.66;4940355;27;98358;-70
2023/05/14 06:42:45;;;;;;;;;;;;;;;27.24;32.14;100904.03;4939958;27;99625;-71
2023/05/14 06:45:13;;;;;;;;;;;;;;;27.36;32.25;100899.09;4935946;27;98164;-79
2023/05/14 06:47:41;;;;;;;;;;;;;;;27.50;32.09;100897.72;4944286;27;98406;-77
2023/05/14 06:50:07;;;;;;;;;;;;;;;27.64;32.12;100892.41;4935029;27;98154;-76
2023/05/14 06:52:34;;;;;;;;;;;;;;;27.70;32.13;100898.41;4945363;27;98125;-75
2023/05/14 06:55:01;;;;;;;;;;;;;;;27.70;32.23;100892.88;4943915;27;98069;-75
2023/05/14 06:57:28;;;;;;;;;;;;;;;27.71;32.11;100892.50;4928570;27;98348;-74
2023/05/14 06:59:56;;;;;;;;;;;;;;;27.73;32.05;100890.16;4944378;27;99762;-72
2023/05/14 07:02:22;;;;;;;;;;;;;;;27.76;32.13;100886.69;4941232;27;98378;-70
2023/05/14 07:04:49;;;;;;;;;;;;;;;27.83;32.16;100878.47;4961110;27;98003;-68
2023/05/14 07:07:19;;;;;;;;;;;;;;;27.96;32.01;100884.56;4923996;28;98372;-69
2023/05/14 07:09:46;;;;;;;;;;;;;;;28.05;32.09;100875.97;4936683;28;98955;-76
2023/05/14 07:12:12;;;;;;;;;;;;;;;28.07;31.95;100877.19;4928684;27;100026;-75
2023/05/14 07:14:41;;;;;;;;;;;;;;;28.12;32.10;100878.84;4928870;27;98524;-75
2023/05/14 07:17:08;;;;;;;;;;;;;;;28.16;31.69;100873.34;4943175;27;98355;-75
2023/05/14 07:19:35;;;;;;;;;;;;;;;28.20;31.76;100861.13;4961240;27;98524;-74
2023/05/14 07:22:01;;;;;;;;;;;;;;;28.15;31.89;100855.91;4922839;28;98416;-75
2023/05/14 07:24:29;;;;;;;;;;;;;;;28.24;31.84;100853.66;4939916;27;98510;-76
2023/05/14 07:26:56;;;;;;;;;;;;;;;28.38;31.68;100855.81;4924945;28;98299;-70
2023/05/14 07:29:24;;;;;;;;;;;;;;;28.47;31.48;100849.97;4938810;28;98647;-64
2023/05/14 07:31:50;;;;;;;;;;;;;;;28.60;31.40;100846.53;4935816;28;100823;-65
2023/05/14 07:34:17;;;;;;;;;;;;;;;28.74;31.67;100843.13;4941593;27;98499;-65
2023/05/14 07:36:44;;;;;;;;;;;;;;;28.89;31.58;100834.94;4942152;27;98400;-67
2023/05/14 07:39:11;;;;;;;;;;;;;;;29.03;31.28;100833.09;4946110;27;98127;-67
2023/05/14 07:41:40;;;;;;;;;;;;;;;29.18;31.06;100834.00;4918940;28;98155;-68
2023/05/14 07:44:07;;;;;;;;;;;;;;;29.23;31.39;100836.41;4935756;27;98288;-66
2023/05/14 07:46:34;;;;;;;;;;;;;;;29.34;30.89;100836.47;4934025;27;99453;-66
2023/05/14 07:49:01;;;;;;;;;;;;;;;29.46;31.08;100835.38;4977267;27;98235;-67
2023/05/14 07:51:28;;;;;;;;;;;;;;;29.62;30.76;100835.88;4947235;27;98308;-66
2023/05/14 07:53:55;;;;;;;;;;;;;;;29.90;30.63;100834.44;4929530;27;99845;-69
2023/05/14 07:56:22;;;;;;;;;;;;;;;30.23;30.37;100828.63;4947184;27;98250;-66
2023/05/14 07:58:49;;;;;;;;;;;;;;;30.63;30.44;100837.06;4979165;27;100360;-68
2023/05/14 08:01:16;;;;;;;;;;;;;;;31.10;30.01;100832.34;4919602;27;99147;-66
2023/05/14 08:03:43;;;;;;;;;;;;;;;31.51;29.78;100829.91;4952200;27;98592;-66
2023/05/14 08:06:09;;;;;;;;;;;;;;;31.87;29.67;100827.03;4945466;27;98495;-67
2023/05/14 08:08:36;;;;;;;;;;;;;;;32.26;29.52;100827.63;4923354;27;100939;-67
2023/05/14 08:11:02;;;;;;;;;;;;;;;32.71;29.07;100818.59;4956984;27;98985;-68
2023/05/14 08:13:29;;;;;;;;;;;;;;;33.05;29.03;100821.50;4932937;27;98623;-67
2023/05/14 08:15:55;;;;;;;;;;;;;;;33.47;29.07;100816.75;4964933;27;98221;-67
2023/05/14 08:18:22;;;;;;;;;;;;;;;33.89;28.82;100812.63;4946007;27;98327;-67
2023/05/14 08:20:48;;;;;;;;;;;;;;;34.47;28.60;100815.47;4948241;27;98429;-67
2023/05/14 08:23:15;;;;;;;;;;;;;;;35.06;28.66;100808.56;4947761;27;98328;-68
2023/05/14 08:25:41;;;;;;;;;;;;;;;35.35;28.30;100808.81;4980170;27;98115;-68
2023/05/14 08:28:08;;;;;;;;;;;;;;;35.81;27.90;100804.31;4947645;27;98149;-68
2023/05/14 08:30:34;;;;;;;;;;;;;;;36.38;27.73;100789.00;4949388;27;98600;-68
2023/05/14 08:33:00;;;;;;;;;;;;;;;36.85;27.70;100791.50;4942192;27;98159;-69
2023/05/14 08:35:26;;;;;;;;;;;;;;;37.29;27.70;100791.94;4982020;27;98289;-66
2023/05/14 08:37:53;;;;;;;;;;;;;;;37.55;27.52;100784.41;4935265;27;100044;-66
2023/05/14 08:40:20;;;;;;;;;;;;;;;37.83;27.34;100780.75;4956978;27;98005;-63
2023/05/14 08:42:47;;;;;;;;;;;;;;;38.17;27.04;100779.34;4954671;27;98329;-62
2023/05/14 08:45:26;;;;;;;;;;;;;;;38.66;26.90;100776.16;4973581;27;98631;-63
2023/05/14 08:47:53;;;;;;;;;;;;;;;39.15;27.08;100767.25;4979131;27;98738;-63
2023/05/14 08:50:19;;;;;;;;;;;;;;;39.51;26.91;100765.97;4962904;27;99375;-63
2023/05/14 08:52:46;;;;;;;;;;;;;;;39.78;26.65;100762.53;4969039;27;98093;-63
2023/05/14 08:55:13;;;;;;;;;;;;;;;38.22;27.82;100763.94;4923720;27;98355;-63
2023/05/14 08:57:39;;;;;;;;;;;;;;;39.31;27.01;100763.47;4943409;27;98609;-63
2023/05/14 09:00:07;;;;;;;;;;;;;;;39.94;26.58;100764.34;4962840;27;99741;-64
2023/05/14 09:02:33;;;;;;;;;;;;;;;40.28;26.67;100771.06;4926719;27;98769;-64
2023/05/14 09:05:01;;;;;;;;;;;;;;;39.25;27.65;100768.13;4943955;27;110790;-63
2023/05/14 09:07:27;;;;;;;;;;;;;;;39.60;26.88;100766.00;4988101;27;98174;-63
2023/05/14 09:09:54;;;;;;;;;;;;;;;36.53;29.26;100750.22;4965456;27;98206;-63
2023/05/14 09:12:20;;;;;;;;;;;;;;;34.66;30.40;100744.84;4872209;27;100343;-65
2023/05/14 09:14:46;;;;;;;;;;;;;;;33.25;31.14;100743.56;4948548;27;101003;-68
2023/05/14 09:17:14;;;;;;;;;;;;;;;32.13;31.66;100740.09;4962050;27;98064;-66
2023/05/14 09:19:40;;;;;;;;;;;;;;;31.20;31.92;100745.22;4950642;27;101353;-66
2023/05/14 09:22:16;;;;;;;;;;;;;;;30.55;31.95;100739.72;4077224;27;10000557;-66
2023/05/14 09:24:42;;;;;;;;;;;;;;;30.17;32.08;100737.69;4936217;28;98520;-67
2023/05/14 09:27:14;;;;;;;;;;;;;;;29.68;32.21;100730.81;4937859;28;100432;-67
2023/05/14 09:29:40;;;;;;;;;;;;;;;28.98;32.56;100727.25;4972751;27;98862;-66
2023/05/14 09:32:09;;;;;;;;;;;;;;;28.39;32.70;100729.94;4938754;28;98125;-66
2023/05/14 09:34:38;;;;;;;;;;;;;;;27.96;32.63;100732.25;4935241;28;98348;-65
2023/05/14 09:37:05;;;;;;;;;;;;;;;30.03;30.69;100733.69;4953542;28;98325;-66
2023/05/14 09:39:33;;;;;;;;;;;;;;;32.47;28.51;100742.28;4955132;28;99928;-67
2023/05/14 09:42:00;;;;;;;;;;;;;;;35.00;26.55;100738.25;4931875;28;98341;-67
2023/05/14 09:44:26;;;;;;;;;;;;;;;35.86;26.51;100737.31;4939341;28;98665;-63
2023/05/14 09:46:53;;;;;;;;;;;;;;;32.65;29.52;100731.75;4938380;28;100619;-66
2023/05/14 09:49:19;;;;;;;;;;;;;;;31.89;30.26;100727.13;4937334;28;98261;-66
2023/05/14 09:51:46;;;;;;;;;;;;;;;33.19;29.03;100720.88;4955975;28;98338;-66
2023/05/14 09:54:12;;;;;;;;;;;;;;;31.42;30.30;100726.50;4934362;28;101526;-69
2023/05/14 09:56:38;;;;;;;;;;;;;;;30.35;31.24;100721.06;4946584;28;98561;-69
2023/05/14 09:59:05;;;;;;;;;;;;;;;29.49;31.77;100713.25;4951525;28;98381;-68
2023/05/14 10:01:31;;;;;;;;;;;;;;;28.58;32.14;100717.81;4926759;28;99253;-66
2023/05/14 10:03:58;;;;;;;;;;;;;;;27.72;32.31;100703.06;4934365;28;98637;-70
2023/05/14 10:06:26;;;;;;;;;;;;;;;27.03;32.73;100700.56;4946631;28;99111;-66
2023/05/14 10:08:55;;;;;;;;;;;;;;;26.49;32.77;100700.91;4952205;28;98232;-66
2023/05/14 10:11:25;;;;;;;;;;;;;;;26.03;32.81;100711.94;4920871;27;101203;-69
2023/05/14 10:14:06;;;;;;;;;;;;;;;25.63;33.00;100700.09;4958273;28;98382;-69
2023/05/14 10:16:41;;;;;;;;;;;;;;;25.22;33.12;100688.59;4937344;28;99886;-65
2023/05/14 10:19:14;;;;;;;;;;;;;;;24.85;33.36;100696.41;4931823;28;106825;-69
2023/05/14 10:21:41;;;;;;;;;;;;;;;24.62;33.44;100701.75;4934860;28;99558;-65
2023/05/14 10:24:07;;;;;;;;;;;;;;;24.48;33.29;100691.22;4932735;28;98518;-69
2023/05/14 10:26:38;;;;;;;;;;;;;;;24.41;32.76;100698.50;4941503;28;102628;-66
2023/05/14 10:29:05;;;;;;;;;;;;;;;24.25;33.00;100691.00;4935783;28;98241;-66
2023/05/14 10:31:52;;;;;;;;;;;;;;;24.05;32.96;100692.03;4926013;28;99705;-69
2023/05/14 10:34:42;;;;;;;;;;;;;;;23.79;33.35;100692.50;4933033;28;98768;-66
2023/05/14 10:37:19;;;;;;;;;;;;;;;23.48;32.95;100695.94;4968893;28;98487;-70
2023/05/14 10:40:05;;;;;;;;;;;;;;;23.15;33.35;100699.69;4953516;28;98275;-69
2023/05/14 10:42:39;;;;;;;;;;;;;;;22.87;33.21;100701.50;4952170;28;98210;-69
2023/05/14 10:45:10;;;;;;;;;;;;;;;22.59;33.19;100702.19;4935431;28;98098;-70
2023/05/14 10:47:39;;;;;;;;;;;;;;;22.41;33.37;100703.56;4939731;28;98077;-66
2023/05/14 10:50:07;;;;;;;;;;;;;;;22.23;33.29;100708.44;4927761;28;98069;-65
2023/05/14 10:52:36;;;;;;;;;;;;;;;22.06;33.36;100715.69;4935262;28;98321;-66
2023/05/14 10:55:11;;;;;;;;;;;;;;;21.91;33.40;100707.28;4920161;28;98475;-65
2023/05/14 10:57:39;;;;;;;;;;;;;;;21.79;33.33;100708.84;4932177;28;98390;-70
2023/05/14 11:00:06;;;;;;;;;;;;;;;21.75;33.33;100702.44;4940565;28;98078;-67
2023/05/14 11:02:40;;;;;;;;;;;;;;;21.75;33.27;100707.91;4934799;28;98003;-70
2023/05/14 11:05:08;;;;;;;;;;;;;;;21.74;33.10;100706.31;4938915;28;99419;-67
2023/05/14 11:07:36;;;;;;;;;;;;;;;21.66;33.21;100698.19;4934206;28;98315;-65
2023/05/14 11:10:07;;;;;;;;;;;;;;;21.52;33.19;100695.69;4928628;28;98202;-65
2023/05/14 11:12:33;;;;;;;;;;;;;;;21.35;33.18;100698.59;4952142;28;99239;-65
2023/05/14 11:15:01;;;;;;;;;;;;;;;21.21;33.36;100698.81;4953686;28;98366;-65
2023/05/14 11:17:28;;;;;;;;;;;;;;;21.10;33.49;100692.91;4954391;28;99778;-69
2023/05/14 11:19:54;;;;;;;;;;;;;;;21.04;33.35;100692.31;4934807;28;98538;-69
2023/05/14 11:22:20;;;;;;;;;;;;;;;20.99;33.39;100695.25;4952853;28;98172;-65
2023/05/14 11:24:46;;;;;;;;;;;;;;;20.92;33.39;100694.97;4939558;28;98592;-69
2023/05/14 11:27:13;;;;;;;;;;;;;;;20.88;33.46;100693.22;4939186;28;98109;-65
2023/05/14 11:29:41;;;;;;;;;;;;;;;20.78;33.35;100689.72;4929733;28;100216;-69
2023/05/14 11:32:07;;;;;;;;;;;;;;;20.71;33.44;100694.94;4952330;28;98032;-69
2023/05/14 11:34:34;;;;;;;;;;;;;;;20.60;33.36;100688.22;4938205;28;98219;-69
2023/05/14 11:37:06;;;;;;;;;;;;;;;20.53;33.35;100687.91;4951843;28;98229;-70
2023/05/14 11:39:33;;;;;;;;;;;;;;;20.48;33.44;100688.09;4940859;28;98266;-66
2023/05/14 11:42:01;;;;;;;;;;;;;;;20.50;33.44;100685.84;4937398;28;98232;-70
2023/05/14 11:44:27;;;;;;;;;;;;;;;20.55;33.32;100677.44;4934852;28;98621;-65
2023/05/14 11:46:56;;;;;;;;;;;;;;;20.57;33.20;100681.47;4922761;28;98158;-65
2023/05/14 11:49:23;;;;;;;;;;;;;;;20.62;33.18;100682.41;4956764;28;98204;-70
2023/05/14 11:51:59;;;;;;;;;;;;;;;20.67;33.24;100682.22;4940501;28;98389;-69
2023/05/14 11:54:29;;;;;;;;;;;;;;;20.73;33.14;100678.97;4924484;28;98479;-69
2023/05/14 11:56:55;;;;;;;;;;;;;;;20.78;33.01;100681.50;4884328;28;99597;-69
2023/05/14 11:59:26;;;;;;;;;;;;;;;20.86;32.98;100671.63;4888584;28;98015;-69
2023/05/14 12:01:53;;;;;;;;;;;;;;;20.95;32.77;100669.66;4891488;28;99035;-65
2023/05/14 12:04:22;;;;;;;;;;;;;;;21.01;32.78;100670.25;4902847;28;98288;-65
2023/05/14 12:06:49;;;;;;;;;;;;;;;21.08;32.77;100670.53;4908941;28;98184;-69
2023/05/14 12:09:21;;;;;;;;;;;;;;;21.14;32.75;100663.69;4902657;28;98292;-65
2023/05/14 12:11:49;;;;;;;;;;;;;;;21.22;32.71;100662.03;4932035;28;98404;-64
2023/05/14 12:14:22;;;;;;;;;;;;;;;21.24;32.79;100657.03;4906821;28;98203;-68
2023/05/14 12:16:49;;;;;;;;;;;;;;;21.32;32.69;100647.94;4926540;28;98950;-69
2023/05/14 12:19:17;;;;;;;;;;;;;;;21.39;32.66;100648.25;4941036;28;98052;-65
2023/05/14 12:21:45;;;;;;;;;;;;;;;21.45;32.58;100649.63;4936637;28;98480;-65
2023/05/14 12:24:16;;;;;;;;;;;;;;;21.52;32.59;100647.16;4922221;28;98247;-69
2023/05/14 12:26:51;;;;;;;;;;;;;;;21.55;32.49;100645.69;4909436;28;99498;-69
2023/05/14 12:29:16;;;;;;;;;;;;;;;21.62;32.49;100643.19;4922286;28;99468;-69
2023/05/14 12:31:49;;;;;;;;;;;;;;;21.68;32.46;100643.78;4907067;28;98399;-65
2023/05/14 12:34:15;;;;;;;;;;;;;;;21.73;32.40;100633.41;4919184;28;99553;-70
2023/05/14 12:36:42;;;;;;;;;;;;;;;21.79;32.46;100634.00;4904320;28;98176;-68
2023/05/14 12:39:09;;;;;;;;;;;;;;;21.92;32.31;100629.31;4920703;28;98296;-68